Time;durP1;ratioP1;P1;durP2;ratioP2;P2;SDS_P1;SDS_P2;PMS_P1;PMS_P2;Temp;Humidity;BMP_temperature;BMP_pressure;BME280_temperature;BME280_humidity;BME280_pressure;Samples;Min_cycle;Max_cycle;Signal;HPM_P1;HPM_P2
2022/12/23 00:02:10;;;;;;;17.55;8.75;;;;;;;1.19;77.94;101247.78;5032067;28;20037;-76
2022/12/23 00:04:35;;;;;;;41.00;11.18;;;;;;;1.18;78.66;101237.53;5032309;28;20487;-75
2022/12/23 00:07:01;;;;;;;23.33;10.40;;;;;;;1.06;78.63;101225.66;5015807;28;20025;-75
2022/12/23 00:09:26;;;;;;;23.38;12.73;;;;;;;1.10;78.72;101250.31;5065532;28;20483;-75
2022/12/23 00:17:27;;;;;;;27.90;14.00;;;;;;;0.98;79.38;101214.63;5066029;28;20032;-75
2022/12/23 00:19:53;;;;;;;22.20;11.48;;;;;;;0.97;79.65;101225.66;5051998;28;20053;-76
2022/12/23 00:22:18;;;;;;;21.65;10.68;;;;;;;1.06;79.25;101240.97;5052575;28;20174;-75
2022/12/23 00:24:44;;;;;;;21.90;11.32;;;;;;;1.12;78.74;101233.31;5068958;28;20410;-75
2022/12/23 00:27:09;;;;;;;22.40;11.25;;;;;;;1.12;78.78;101235.88;5035898;28;20044;-75
2022/12/23 00:29:34;;;;;;;23.88;15.45;;;;;;;1.06;78.75;101243.50;5053052;28;20064;-75
2022/12/23 00:32:00;;;;;;;27.25;13.30;;;;;;;0.66;79.18;101173.88;5053235;28;20087;-76
2022/12/23 00:34:25;;;;;;;23.10;13.27;;;;;;;0.95;78.97;101223.13;5051827;28;20498;-75
2022/12/23 00:36:51;;;;;;;22.77;12.23;;;;;;;0.96;79.09;101229.06;5068393;28;20037;-76
2022/12/23 00:44:44;;;;;;;36.45;13.07;;;;;;;0.99;78.99;101221.44;5051828;28;20162;-75
2022/12/23 00:49:40;;;;;;;36.38;15.48;;;;;;;0.86;78.93;101203.59;5051451;28;20021;-75
2022/12/23 00:49:55;;;;;;;14.63;9.57;;;;;;;0.79;78.91;101196.81;5037756;28;20106;-75
2022/12/23 00:52:20;;;;;;;31.33;15.10;;;;;;;0.68;78.56;101170.47;5068181;28;20025;-76
2022/12/23 00:54:46;;;;;;;17.98;10.65;;;;;;;0.99;78.56;101198.53;5052809;28;20021;-76
2022/12/23 00:57:11;;;;;;;28.42;11.55;;;;;;;1.07;78.61;101218.03;5051585;28;20057;-76
2022/12/23 00:59:37;;;;;;;28.20;17.42;;;;;;;0.91;78.78;101201.06;5052317;28;20044;-76
2022/12/23 01:07:30;;;;;;;24.08;11.93;;;;;;;0.99;78.90;101204.47;5051417;28;20039;-75
2022/12/23 01:09:56;;;;;;;21.38;13.00;;;;;;;0.92;78.87;101186.63;5051351;28;20025;-75
2022/12/23 01:12:21;;;;;;;16.75;10.45;;;;;;;1.04;79.26;101201.91;5051322;28;20083;-76
2022/12/23 01:14:47;;;;;;;20.80;9.82;;;;;;;1.11;78.85;101209.53;5051255;28;20039;-75
2022/12/23 01:17:12;;;;;;;21.90;13.25;;;;;;;0.97;78.65;101182.34;5034573;28;20098;-76
2022/12/23 01:19:38;;;;;;;13.88;8.13;;;;;;;1.13;78.33;101201.88;5050984;28;20081;-76
2022/12/23 01:22:03;;;;;;;18.42;10.73;;;;;;;1.00;78.96;101195.97;5052107;28;20633;-76
2022/12/23 01:24:29;;;;;;;23.73;12.40;;;;;;;1.14;78.83;101216.31;5052506;28;20024;-76
2022/12/23 01:26:55;;;;;;;23.15;12.52;;;;;;;1.17;79.13;101213.75;5033890;28;20036;-76
2022/12/23 01:29:20;;;;;;;16.02;8.85;;;;;;;1.15;79.00;101202.72;5067065;28;20036;-76
2022/12/23 01:31:46;;;;;;;15.57;9.10;;;;;;;1.22;78.64;101217.16;5034066;28;20070;-76
2022/12/23 01:34:11;;;;;;;15.05;7.45;;;;;;;1.08;79.45;101199.34;5051001;28;20079;-75
2022/12/23 01:36:37;;;;;;;8.77;5.10;;;;;;;1.15;79.06;101205.28;5067546;28;20024;-75
2022/12/23 01:39:02;;;;;;;13.00;7.00;;;;;;;1.03;79.25;101182.38;5050794;28;20032;-75
2022/12/23 01:44:44;;;;;;;15.27;7.07;;;;;;;1.23;79.01;101202.72;5064709;28;20414;-77
2022/12/23 01:47:12;;;;;;;11.25;6.20;;;;;;;0.95;79.07;101179.81;5052125;28;20039;-76
2022/12/23 01:49:38;;;;;;;13.00;6.60;;;;;;;1.07;79.71;101206.97;5050480;28;20033;-75
2022/12/23 01:52:04;;;;;;;9.07;6.80;;;;;;;0.98;79.68;101191.69;5034107;28;20597;-75
2022/12/23 01:54:30;;;;;;;16.42;9.95;;;;;;;1.08;80.06;101201.03;5067224;28;20036;-75
2022/12/23 01:56:55;;;;;;;22.63;7.53;;;;;;;1.12;79.74;101195.09;5050155;28;20037;-75
2022/12/23 02:04:49;;;;;;;13.52;7.07;;;;;;;1.02;79.68;101168.78;5036148;28;20044;-75
2022/12/23 02:09:58;;;;;;;11.07;8.68;;;;;;;1.07;79.75;101159.41;5036027;28;20553;-76
2022/12/23 02:12:45;;;;;;;13.25;8.90;;;;;;;1.16;80.11;101173.84;5033638;28;20116;-76
2022/12/23 02:18:41;;;;;;;19.40;7.95;;;;;;;1.13;80.11;101174.69;5049935;28;20055;-75
2022/12/23 02:21:31;;;;;;;21.63;7.75;;;;;;;1.23;79.61;101193.38;5036340;28;20064;-75
2022/12/23 02:24:58;;;;;;;24.52;9.75;;;;;;;1.16;79.27;101186.59;5051167;28;20029;-76
2022/12/23 02:27:31;;;;;;;16.58;7.80;;;;;;;1.02;79.53;101166.22;5036716;28;20079;-76
2022/12/23 02:30:04;;;;;;;9.55;5.68;;;;;;;1.13;79.84;101178.94;5032069;28;20033;-76
2022/12/23 02:32:51;;;;;;;22.40;12.70;;;;;;;1.13;79.96;101186.59;5057026;28;20041;-76
2022/12/23 02:35:24;;;;;;;22.45;9.95;;;;;;;1.11;79.90;101170.47;5049652;28;20047;-75
2022/12/23 02:38:09;;;;;;;17.88;8.43;;;;;;;1.11;80.14;101190.84;5049807;28;20021;-75
2022/12/23 02:40:41;;;;;;;17.88;10.50;;;;;;;1.10;79.68;101197.66;5049771;28;20532;-75
2022/12/23 02:43:10;;;;;;;26.73;9.30;;;;;;;1.11;80.30;101201.06;5033163;28;20108;-76
2022/12/23 02:45:39;;;;;;;14.05;8.73;;;;;;;1.06;79.88;101180.66;5050588;28;20033;-75
2022/12/23 02:48:12;;;;;;;22.50;9.48;;;;;;;1.08;80.46;101188.28;5049889;28;20029;-76
2022/12/23 02:50:38;;;;;;;25.05;8.38;;;;;;;1.18;80.17;101190.00;5033105;28;20190;-75
2022/12/23 02:53:09;;;;;;;15.27;9.93;;;;;;;1.18;80.13;101195.09;5032988;28;20494;-76
2022/12/23 02:55:34;;;;;;;33.95;11.55;;;;;;;1.11;80.11;101173.03;5050195;28;20040;-76
2022/12/23 02:58:03;;;;;;;22.52;9.18;;;;;;;1.03;80.27;101180.66;5032725;28;20025;-76
2022/12/23 03:00:28;;;;;;;17.35;10.90;;;;;;;1.08;80.53;101188.28;5049473;28;20056;-75
2022/12/23 03:02:54;;;;;;;17.80;10.68;;;;;;;0.78;80.09;101135.66;5016310;28;20032;-76
2022/12/23 03:05:28;;;;;;;16.05;9.65;;;;;;;1.10;79.87;101189.16;5049327;28;20037;-75
2022/12/23 03:07:58;;;;;;;18.30;11.63;;;;;;;1.08;80.02;101201.03;5033231;28;20406;-75
2022/12/23 03:10:45;;;;;;;25.75;12.30;;;;;;;0.90;79.92;101162.84;5049382;28;20086;-76
2022/12/23 03:13:38;;;;;;;33.92;9.85;;;;;;;0.90;79.97;101178.13;5050291;28;20484;-75
2022/12/23 03:16:27;;;;;;;18.50;9.75;;;;;;;1.12;80.22;101205.28;5050575;28;20025;-75
2022/12/23 03:19:26;;;;;;;29.52;12.38;;;;;;;1.08;80.53;101203.56;5049714;28;20506;-76
2022/12/23 03:22:17;;;;;;;15.60;10.57;;;;;;;1.06;80.54;101195.09;5050592;28;20025;-75
2022/12/23 03:25:09;;;;;;;17.20;7.07;;;;;;;1.12;80.36;101206.13;5032525;28;20025;-76
2022/12/23 03:28:13;;;;;;;19.37;9.70;;;;;;;0.94;80.40;101175.56;5049286;28;20052;-75
2022/12/23 03:30:38;;;;;;;;;;;;;;;1.08;80.59;101190.84;5048617;28;20037;-76
2022/12/23 03:33:08;;;;;;;26.35;12.40;;;;;;;1.01;80.69;101186.63;5044663;28;20298;-75
2022/12/23 03:35:37;;;;;;;24.38;11.02;;;;;;;0.95;81.00;101194.25;5049151;28;20033;-76
2022/12/23 03:38:02;;;;;;;27.75;11.75;;;;;;;0.94;80.93;101183.22;5032798;28;20064;-75
2022/12/23 03:40:37;;;;;;;42.85;9.48;;;;;;;0.97;81.15;101179.81;5048817;28;20029;-76
2022/12/23 03:43:04;;;;;;;16.38;10.45;;;;;;;0.91;80.98;101174.75;5049271;28;20052;-75
2022/12/23 03:45:36;;;;;;;24.63;13.48;;;;;;;0.94;81.51;101170.47;5049167;28;20033;-75
2022/12/23 03:48:04;;;;;;;18.55;13.05;;;;;;;0.74;81.20;101131.44;5032823;28;20295;-75
2022/12/23 03:50:29;;;;;;;17.08;11.13;;;;;;;0.94;80.91;101149.25;5050707;28;20517;-75
2022/12/23 03:53:00;;;;;;;21.65;9.60;;;;;;;0.99;80.60;101165.41;5052825;28;20033;-75
2022/12/23 03:55:29;;;;;;;34.55;10.98;;;;;;;0.88;80.82;101139.06;5036391;28;20032;-75
2022/12/23 03:58:24;;;;;;;23.13;14.27;;;;;;;1.13;81.01;101176.41;5053215;28;20063;-75
2022/12/23 04:01:11;;;;;;;12.93;10.27;;;;;;;0.95;80.67;101138.22;5035195;28;20072;-76
2022/12/23 04:03:48;;;;;;;31.02;16.23;;;;;;;1.17;80.19;101178.09;5051796;28;20442;-76
2022/12/23 04:06:14;;;;;;;21.95;12.95;;;;;;;1.16;80.24;101176.38;5036788;28;20411;-76
2022/12/23 04:08:40;;;;;;;21.73;13.55;;;;;;;1.25;79.86;101178.06;5019065;28;20422;-76
2022/12/23 04:11:05;;;;;;;20.42;13.82;;;;;;;1.40;80.87;101178.91;5052524;28;20029;-75
2022/12/23 04:13:31;;;;;;;24.45;13.65;;;;;;;1.40;79.53;101190.81;5035832;28;20040;-76
2022/12/23 04:16:00;;;;;;;30.58;15.80;;;;;;;1.38;79.58;101180.63;5035640;28;20132;-76
2022/12/23 04:18:25;;;;;;;26.10;13.55;;;;;;;1.27;79.15;101161.91;5035722;28;20044;-76
2022/12/23 04:20:51;;;;;;;16.80;11.18;;;;;;;1.33;79.15;101178.91;5068890;28;20035;-75
2022/12/23 04:23:16;;;;;;;21.08;12.20;;;;;;;1.33;79.03;101174.66;5053328;28;20475;-75
2022/12/23 04:25:42;;;;;;;29.98;10.85;;;;;;;1.13;78.95;101140.72;5052554;28;20033;-75
2022/12/23 04:28:07;;;;;;;16.10;12.52;;;;;;;1.22;78.93;101171.28;5052113;28;20063;-76
2022/12/23 04:30:33;;;;;;;23.85;13.45;;;;;;;1.06;79.50;101154.31;5047170;28;20032;-74
2022/12/23 04:32:58;;;;;;;22.75;13.50;;;;;;;1.08;79.57;101156.03;5076862;28;20024;-74
2022/12/23 04:35:24;;;;;;;23.65;10.05;;;;;;;1.14;79.35;101157.72;5071848;28;20024;-74
2022/12/23 04:37:49;;;;;;;23.33;11.13;;;;;;;1.15;79.25;101167.06;5072536;28;20036;-73
2022/12/23 04:40:15;;;;;;;23.30;11.00;;;;;;;1.14;79.10;101162.81;5071788;28;20519;-74
2022/12/23 04:42:40;;;;;;;28.55;11.88;;;;;;;1.03;79.33;101154.34;5071108;28;20071;-80
2022/12/23 04:45:06;;;;;;;17.50;10.55;;;;;;;1.11;79.10;101178.13;5071807;28;20054;-80
2022/12/23 04:47:32;;;;;;;16.77;9.10;;;;;;;1.02;79.16;101158.59;5054974;28;20054;-80
2022/12/23 04:49:57;;;;;;;22.83;11.35;;;;;;;1.13;78.61;101172.16;5071024;28;20541;-80
2022/12/23 04:52:23;;;;;;;28.02;12.70;;;;;;;0.85;79.03;101145.00;5071347;28;20033;-80
2022/12/23 04:54:48;;;;;;;15.60;10.82;;;;;;;0.92;79.31;101166.25;5054942;28;20032;-80
2022/12/23 04:57:14;;;;;;;26.55;15.30;;;;;;;0.79;78.70;101148.44;5054686;28;20028;-81
2022/12/23 04:59:39;;;;;;;24.15;15.13;;;;;;;0.80;78.92;101162.00;5037998;28;20038;-80
2022/12/23 05:02:05;;;;;;;29.38;16.00;;;;;;;0.82;79.62;101175.59;5053697;28;20025;-80
2022/12/23 05:04:30;;;;;;;24.75;13.13;;;;;;;0.84;79.43;101184.06;5035913;28;20064;-80
2022/12/23 05:06:56;;;;;;;19.15;15.90;;;;;;;0.68;79.79;101160.28;5036983;28;20505;-76
2022/12/23 05:09:21;;;;;;;28.83;14.95;;;;;;;0.66;79.61;101169.63;5070885;28;20029;-75
2022/12/23 05:11:47;;;;;;;34.35;16.95;;;;;;;0.59;79.41;101155.22;5057336;28;21193;-79
2022/12/23 05:14:12;;;;;;;34.22;16.27;;;;;;;0.75;79.49;101178.97;5054182;28;20024;-85
2022/12/23 05:16:38;;;;;;;27.08;15.45;;;;;;;0.60;79.61;101167.09;5070064;28;20077;-78
2022/12/23 05:19:03;;;;;;;36.28;17.17;;;;;;;0.41;79.48;101117.88;5071971;28;20494;-78
2022/12/23 05:21:29;;;;;;;38.53;23.92;;;;;;;0.73;79.59;101176.44;5071078;28;20063;-76
2022/12/23 05:23:54;;;;;;;33.00;21.00;;;;;;;0.52;79.80;101156.06;5054236;28;20029;-77
2022/12/23 05:26:20;;;;;;;29.45;18.38;;;;;;;0.55;79.59;101167.09;5053919;28;20413;-77
2022/12/23 05:28:46;;;;;;;28.73;18.13;;;;;;;0.66;80.11;101186.59;5068594;28;20044;-77
2022/12/23 05:31:12;;;;;;;45.92;25.73;;;;;;;0.66;79.68;101177.28;5070516;28;20082;-77
2022/12/23 05:33:38;;;;;;;36.55;19.10;;;;;;;0.62;79.57;101185.78;5071590;28;20035;-77
2022/12/23 05:36:04;;;;;;;35.38;20.45;;;;;;;0.56;79.75;101178.13;5068941;28;20028;-77
2022/12/23 05:38:30;;;;;;;28.17;16.45;;;;;;;0.55;79.47;101176.41;5067268;28;20027;-81
2022/12/23 05:40:55;;;;;;;37.35;18.33;;;;;;;0.58;79.40;101191.69;5048941;28;20033;-79
2022/12/23 05:43:21;;;;;;;48.28;29.77;;;;;;;0.60;79.57;101194.25;5067034;28;20425;-79
2022/12/23 05:45:46;;;;;;;59.55;24.23;;;;;;;0.44;79.60;101173.00;5070484;28;20028;-76
2022/12/23 05:48:12;;;;;;;37.67;21.85;;;;;;;0.38;79.56;101167.91;5070166;28;20034;-77
2022/12/23 05:50:37;;;;;;;35.72;18.20;;;;;;;0.59;79.48;101193.41;5069763;28;20020;-78
2022/12/23 05:53:03;;;;;;;30.38;18.73;;;;;;;0.57;79.38;101184.91;5070208;28;20490;-78
2022/12/23 05:55:29;;;;;;;35.63;21.17;;;;;;;0.52;79.55;101190.00;5087261;28;20046;-78
2022/12/23 05:57:54;;;;;;;26.50;15.88;;;;;;;0.61;78.91;101178.97;5086914;28;20051;-80
2022/12/23 06:00:20;;;;;;;47.17;21.67;;;;;;;0.27;79.40;101145.84;5067601;28;20028;-81
2022/12/23 06:02:45;;;;;;;34.75;19.35;;;;;;;0.49;79.58;101184.91;5083017;28;20036;-80
2022/12/23 06:05:11;;;;;;;27.25;18.45;;;;;;;0.52;80.08;101189.16;5048983;28;20025;-84
2022/12/23 06:07:37;;;;;;;35.47;17.05;;;;;;;0.60;79.95;101195.13;5033089;28;20029;-78
2022/12/23 06:10:04;;;;;;;46.08;21.73;;;;;;;0.48;79.98;101195.91;5048055;28;20068;-78
2022/12/23 06:12:30;;;;;;;35.35;20.48;;;;;;;0.50;79.84;101190.84;5065117;28;20025;-81
2022/12/23 06:14:55;;;;;;;45.53;20.52;;;;;;;0.50;80.06;101199.34;5068283;28;20024;-78
2022/12/23 06:17:21;;;;;;;28.40;21.15;;;;;;;0.50;79.85;101201.03;5069417;28;20032;-78
2022/12/23 06:19:46;;;;;;;33.92;23.48;;;;;;;0.13;79.89;101137.34;5069137;28;20532;-81
2022/12/23 06:22:12;;;;;;;30.25;19.80;;;;;;;0.48;80.33;101185.72;5067503;28;20512;-78
2022/12/23 06:24:38;;;;;;;33.40;20.45;;;;;;;0.48;79.32;101195.91;5070634;28;20059;-80
2022/12/23 06:27:04;;;;;;;34.58;19.23;;;;;;;0.29;79.87;101173.81;5069853;28;20044;-80
2022/12/23 06:29:29;;;;;;;39.03;20.70;;;;;;;0.32;80.33;101180.63;5067136;28;20056;-78
2022/12/23 06:31:55;;;;;;;29.90;20.25;;;;;;;0.47;80.72;101211.19;5067069;28;20028;-82
2022/12/23 06:34:20;;;;;;;29.58;20.45;;;;;;;0.42;81.46;101201.03;5069339;28;20414;-82
2022/12/23 06:36:46;;;;;;;37.10;20.30;;;;;;;0.48;81.29;101190.81;5066208;28;20028;-82
2022/12/23 06:39:11;;;;;;;29.13;19.38;;;;;;;0.45;81.20;101184.88;5069425;28;20028;-78
2022/12/23 06:41:37;;;;;;;35.42;19.38;;;;;;;0.56;81.41;101195.94;5066492;28;20025;-81
2022/12/23 06:44:02;;;;;;;48.35;23.83;;;;;;;0.68;81.04;101203.56;5070376;28;20028;-82
2022/12/23 06:46:28;;;;;;;53.38;23.10;;;;;;;0.73;80.35;101211.25;5065158;28;20036;-85
2022/12/23 06:48:53;;;;;;;37.88;22.33;;;;;;;0.71;80.22;101190.88;5054211;28;20070;-77
2022/12/23 06:51:20;;;;;;;38.13;20.15;;;;;;;0.82;80.07;101204.44;5067783;28;20028;-78
2022/12/23 06:53:46;;;;;;;28.45;18.85;;;;;;;0.56;79.91;101158.59;5067476;28;20510;-80
2022/12/23 06:56:11;;;;;;;49.17;22.48;;;;;;;0.63;80.79;101169.63;5070258;28;20033;-79
2022/12/23 06:58:36;;;;;;;42.85;25.88;;;;;;;0.79;80.76;101189.19;5068994;28;20035;-76
2022/12/23 07:01:02;;;;;;;47.72;21.33;;;;;;;0.82;80.27;101181.53;5069626;28;20089;-78
2022/12/23 07:03:27;;;;;;;51.97;26.30;;;;;;;0.90;79.93;101188.31;5048284;28;20039;-85
2022/12/23 07:05:53;;;;;;;35.60;21.20;;;;;;;0.98;79.66;101191.69;5067456;28;20029;-90
2022/12/23 07:08:19;;;;;;;36.97;22.45;;;;;;;1.00;79.75;101190.03;5035745;28;20547;-82
2022/12/23 07:10:44;;;;;;;30.70;20.92;;;;;;;0.89;79.47;101171.34;5085710;28;20502;-81
2022/12/23 07:13:10;;;;;;;34.50;20.17;;;;;;;1.00;79.81;101187.47;5066561;28;20490;-77
2022/12/23 07:15:36;;;;;;;39.03;16.65;;;;;;;1.09;79.59;101192.56;5052096;28;20115;-77
2022/12/23 07:18:01;;;;;;;46.90;24.73;;;;;;;1.02;80.20;101193.41;5069787;28;20048;-81
2022/12/23 07:20:27;;;;;;;34.88;22.75;;;;;;;1.20;79.58;101200.19;5068426;28;20035;-79
2022/12/23 07:22:53;;;;;;;39.80;23.45;;;;;;;1.03;79.71;101177.28;5068486;28;20037;-78
2022/12/23 07:25:19;;;;;;;30.83;17.90;;;;;;;1.11;79.46;101183.22;5051671;28;20166;-78
2022/12/23 07:27:44;;;;;;;43.28;22.77;;;;;;;1.23;79.49;101195.94;5088516;28;20478;-80
2022/12/23 07:30:10;;;;;;;33.15;19.52;;;;;;;1.25;79.62;101186.56;5071368;28;20036;-89
2022/12/23 07:32:36;;;;;;;45.75;22.40;;;;;;;1.32;79.58;101198.47;5054544;28;20510;-77
2022/12/23 07:35:01;;;;;;;46.83;23.48;;;;;;;1.29;79.39;101183.19;5069994;28;20059;-78
2022/12/23 07:37:27;;;;;;;28.88;19.48;;;;;;;1.43;79.30;101186.53;5051863;28;20028;-78
2022/12/23 07:39:52;;;;;;;46.50;25.40;;;;;;;1.58;79.12;101200.97;5036674;28;20059;-82
2022/12/23 07:42:18;;;;;;;42.17;24.10;;;;;;;1.69;78.79;101218.78;5068825;28;20043;-81
2022/12/23 07:44:43;;;;;;;40.97;22.50;;;;;;;1.57;78.92;101188.19;5054023;28;20028;-78
2022/12/23 07:47:09;;;;;;;32.40;22.58;;;;;;;1.66;78.87;101193.25;5071673;28;20094;-77
2022/12/23 07:49:34;;;;;;;39.70;23.85;;;;;;;1.87;78.88;101212.75;5055671;28;20101;-77
2022/12/23 07:52:00;;;;;;;33.45;23.00;;;;;;;1.69;78.87;101178.81;5071886;28;20509;-78
2022/12/23 07:54:25;;;;;;;37.30;23.63;;;;;;;1.90;78.31;101198.28;5073266;28;20032;-80
2022/12/23 07:56:51;;;;;;;34.70;22.38;;;;;;;1.96;78.07;101203.34;5072374;28;20017;-78
2022/12/23 07:59:16;;;;;;;44.25;23.42;;;;;;;1.81;78.10;101179.63;5067944;28;20078;-78
2022/12/23 08:01:42;;;;;;;62.53;23.25;;;;;;;1.96;78.55;101198.25;5066876;28;20056;-78
2022/12/23 08:04:07;;;;;;;33.38;19.52;;;;;;;2.02;78.16;101207.59;5066322;28;20503;-85
2022/12/23 08:06:36;;;;;;;38.35;16.92;;;;;;;2.18;78.34;101216.03;5048483;28;20040;-81
2022/12/23 08:09:01;;;;;;;33.30;19.02;;;;;;;2.14;78.67;101206.69;5044534;28;20024;-83
2022/12/23 08:11:27;;;;;;;27.00;17.48;;;;;;;2.21;78.17;101218.56;5054330;28;20078;-81
2022/12/23 08:13:52;;;;;;;34.45;22.05;;;;;;;2.22;78.64;101216.00;5071297;28;20104;-80
2022/12/23 08:16:18;;;;;;;40.75;20.70;;;;;;;2.25;78.21;101215.13;5071433;28;20032;-80
2022/12/23 08:18:43;;;;;;;28.08;20.02;;;;;;;2.39;78.01;101232.94;5071414;28;20048;-77
2022/12/23 08:21:14;;;;;;;52.33;21.92;;;;;;;2.45;78.00;101212.44;5054117;28;20506;-79
2022/12/23 08:23:40;;;;;;;25.15;16.50;;;;;;;2.61;78.11;101216.63;5049308;28;20033;-81
2022/12/23 08:26:09;;;;;;;34.40;21.83;;;;;;;2.80;77.31;101235.22;5050160;28;20033;-77
2022/12/23 08:28:35;;;;;;;26.02;18.65;;;;;;;2.67;76.48;101224.25;5050658;28;20033;-75
2022/12/23 08:31:05;;;;;;;35.03;19.33;;;;;;;2.82;76.34;101233.50;5043396;28;20146;-80
2022/12/23 08:33:31;;;;;;;45.95;24.90;;;;;;;2.86;76.14;101235.19;5067954;28;20025;-84
2022/12/23 08:35:56;;;;;;;41.22;21.13;;;;;;;2.82;75.78;101233.50;5069815;28;20047;-79
2022/12/23 08:38:22;;;;;;;27.52;19.40;;;;;;;2.84;76.17;101190.88;5067105;28;20513;-82
2022/12/23 08:40:47;;;;;;;33.03;18.83;;;;;;;3.18;75.18;101240.03;5086865;28;20025;-83
2022/12/23 08:43:13;;;;;;;37.63;18.20;;;;;;;3.38;75.33;101244.97;5070608;28;20055;-84
2022/12/23 08:45:38;;;;;;;36.08;18.17;;;;;;;3.33;74.50;101236.47;5068835;28;20050;-82
2022/12/23 08:48:05;;;;;;;33.70;15.85;;;;;;;3.38;74.96;101237.28;5069159;28;20075;-80
2022/12/23 08:50:35;;;;;;;18.15;13.60;;;;;;;3.69;73.89;101230.16;5085199;28;20158;-89
2022/12/23 08:53:00;;;;;;;24.10;14.45;;;;;;;3.89;72.36;101232.47;5053223;28;20028;-87
2022/12/23 08:55:26;;;;;;;28.92;12.32;;;;;;;3.90;72.12;101231.59;5068866;28;20024;-78
2022/12/23 08:57:51;;;;;;;37.13;16.85;;;;;;;3.69;71.88;101200.28;5072913;28;20079;-79
2022/12/23 09:00:17;;;;;;;34.95;21.00;;;;;;;3.62;72.63;101198.66;5061966;28;20032;-84
2022/12/23 09:02:42;;;;;;;30.83;16.25;;;;;;;3.67;72.79;101217.38;5053133;28;20063;-80
2022/12/23 09:05:08;;;;;;;29.85;18.88;;;;;;;3.66;72.62;101200.31;5053308;28;20428;-82
2022/12/23 09:07:33;;;;;;;28.77;15.50;;;;;;;3.76;72.43;101201.06;5069266;28;20559;-83
2022/12/23 09:09:59;;;;;;;34.95;16.77;;;;;;;3.75;72.47;101189.16;5065820;28;20040;-85
2022/12/23 09:12:24;;;;;;;39.85;17.73;;;;;;;3.88;72.89;101215.44;5068127;28;20528;-81
2022/12/23 09:14:50;;;;;;;40.72;19.55;;;;;;;3.87;72.66;101196.66;5084438;28;20035;-83
2022/12/23 09:17:16;;;;;;;36.05;22.10;;;;;;;3.76;72.82;101184.88;5067758;28;20112;-80
2022/12/23 09:19:42;;;;;;;35.50;20.27;;;;;;;3.85;73.03;101189.88;5017987;28;1436935;-79
2022/12/23 09:22:08;;;;;;;48.47;20.30;;;;;;;4.11;71.97;101200.63;5070733;28;20173;-81
2022/12/23 09:24:34;;;;;;;43.40;22.70;;;;;;;4.17;72.28;101192.88;5067722;28;20094;-79
2022/12/23 09:26:59;;;;;;;32.38;20.77;;;;;;;4.03;72.14;101174.25;5034976;28;20037;-82
2022/12/23 09:29:25;;;;;;;46.90;25.55;;;;;;;4.01;72.32;101160.63;5054609;28;20533;-81
2022/12/23 09:31:50;;;;;;;41.17;20.25;;;;;;;4.31;72.22;101190.09;5066885;28;20032;-81
2022/12/23 09:34:16;;;;;;;42.30;21.65;;;;;;;4.19;71.57;101162.09;5065973;28;20032;-78
2022/12/23 09:36:41;;;;;;;52.15;25.52;;;;;;;4.58;71.60;101199.09;5070116;28;20522;-80
2022/12/23 09:39:08;;;;;;;40.00;20.45;;;;;;;4.69;71.52;101202.34;5067539;28;20490;-86
2022/12/23 09:41:38;;;;;;;37.03;21.15;;;;;;;4.73;70.88;101201.44;5087794;28;20028;-89
2022/12/23 09:44:25;;;;;;;34.80;19.10;;;;;;;4.80;70.80;101200.47;5052639;28;20395;-83
2022/12/23 09:46:55;;;;;;;34.05;20.83;;;;;;;4.87;71.10;101196.09;5068927;28;20494;-80
2022/12/23 09:49:21;;;;;;;40.20;25.27;;;;;;;4.88;70.21;101172.97;5056873;28;20037;-88
2022/12/23 09:51:46;;;;;;;43.88;24.10;;;;;;;5.03;69.87;101171.03;5050364;28;20043;-80
2022/12/23 09:54:16;;;;;;;36.17;23.25;;;;;;;5.24;69.64;101188.63;5054649;28;20025;-81
2022/12/23 09:56:46;;;;;;;69.70;31.02;;;;;;;5.24;69.26;101190.34;5076151;28;20518;-81
2022/12/23 09:59:21;;;;;;;50.60;25.83;;;;;;;5.28;69.15;101172.28;5059030;28;20028;-83
2022/12/23 10:01:56;;;;;;;42.95;22.08;;;;;;;5.45;68.54;101207.91;5062161;28;20550;-82
2022/12/23 10:04:21;;;;;;;50.47;21.55;;;;;;;5.49;68.20;101189.00;5050454;28;20036;-83
2022/12/23 10:06:52;;;;;;;53.65;24.30;;;;;;;5.59;68.31;101184.53;5068275;28;20095;-78
2022/12/23 10:09:17;;;;;;;44.90;21.98;;;;;;;5.90;68.91;101170.25;5047791;28;20495;-79
2022/12/23 10:11:43;;;;;;;51.45;23.90;;;;;;;6.01;67.83;101186.28;5065541;28;20035;-79
2022/12/23 10:14:21;;;;;;;63.92;26.52;;;;;;;5.93;66.05;101141.94;5066068;28;20082;-81
2022/12/23 10:16:52;;;;;;;68.90;27.65;;;;;;;6.20;66.42;101175.63;5051423;28;20031;-82
2022/12/23 10:19:27;;;;;;;42.28;26.30;;;;;;;6.38;65.60;101174.34;5034189;28;20052;-80
2022/12/23 10:21:59;;;;;;;56.15;29.23;;;;;;;6.41;65.66;101164.00;5066144;28;20036;-83
2022/12/23 10:24:27;;;;;;;56.65;27.50;;;;;;;6.30;65.45;101143.69;5066985;28;20024;-83
2022/12/23 10:26:57;;;;;;;83.05;34.10;;;;;;;6.48;65.72;101142.41;5065286;28;20077;-79
2022/12/23 10:29:24;;;;;;;81.43;32.22;;;;;;;6.60;65.20;101142.97;5067508;28;20029;-85
2022/12/23 10:32:14;;;;;;;73.25;32.15;;;;;;;6.79;64.79;101153.66;5034389;28;20039;-85
2022/12/23 10:35:16;;;;;;;65.90;31.20;;;;;;;7.03;63.87;101153.91;5061562;28;20025;-83
2022/12/23 10:37:41;;;;;;;70.90;35.15;;;;;;;7.09;64.20;101146.03;5070520;28;20103;-81
2022/12/23 10:40:29;;;;;;;94.28;39.33;;;;;;;7.17;63.99;101124.34;5070308;28;20480;-80
2022/12/23 10:43:27;;;;;;;72.05;31.10;;;;;;;7.31;63.71;101123.97;5059964;28;20087;-81
2022/12/23 10:46:14;;;;;;;69.63;31.48;;;;;;;7.15;63.67;101082.38;5062796;28;20036;-80
2022/12/23 10:48:58;;;;;;;57.28;30.60;;;;;;;7.58;63.28;101122.38;5054995;28;20032;-81
2022/12/23 10:51:26;;;;;;;60.67;26.77;;;;;;;7.68;63.09;101118.66;5069157;28;20025;-78
2022/12/23 10:53:54;;;;;;;95.10;30.88;;;;;;;7.57;62.50;101084.63;5069008;28;20111;-78
2022/12/23 10:56:20;;;;;;;71.53;31.13;;;;;;;7.76;62.65;101101.22;5052604;28;20024;-81
2022/12/23 10:58:50;;;;;;;71.65;30.92;;;;;;;7.80;62.68;101103.72;5052457;28;20474;-77
2022/12/23 11:01:16;;;;;;;68.75;29.58;;;;;;;7.82;62.39;101095.03;5068833;28;20089;-77
2022/12/23 11:04:04;;;;;;;68.20;29.65;;;;;;;7.88;62.19;101096.59;5052105;28;20484;-77
2022/12/23 11:06:30;;;;;;;73.72;29.58;;;;;;;8.01;62.13;101100.47;5048995;28;20036;-77
2022/12/23 11:08:55;;;;;;;80.22;33.97;;;;;;;8.02;61.79;101097.00;5049129;28;20598;-79
2022/12/23 11:11:21;;;;;;;71.65;33.03;;;;;;;8.07;61.75;101084.84;5048519;28;20505;-78
2022/12/23 11:13:46;;;;;;;75.55;33.95;;;;;;;8.32;60.62;101090.91;5048831;28;20033;-76
2022/12/23 11:16:25;;;;;;;80.47;33.10;;;;;;;8.38;60.79;101091.63;5048619;28;20032;-77
2022/12/23 11:18:57;;;;;;;77.28;32.72;;;;;;;8.46;60.43;101094.81;5047515;28;20499;-83
2022/12/23 11:21:23;;;;;;;74.75;33.95;;;;;;;8.49;60.37;101097.28;5048339;28;20021;-79
2022/12/23 11:24:05;;;;;;;85.03;33.15;;;;;;;8.51;59.91;101095.50;5048581;28;20029;-77
2022/12/23 11:26:30;;;;;;;61.65;29.48;;;;;;;8.42;60.44;101076.00;5016190;28;20053;-79
2022/12/23 11:29:01;;;;;;;89.53;34.28;;;;;;;8.51;60.33;101086.00;5048298;28;20447;-79
2022/12/23 11:31:31;;;;;;;94.57;30.80;;;;;;;8.51;60.32;101078.28;5030488;28;20053;-80
2022/12/23 11:33:58;;;;;;;67.47;29.60;;;;;;;8.52;60.06;101067.06;5031103;28;20053;-80
2022/12/23 11:36:26;;;;;;;70.20;29.58;;;;;;;8.67;60.40;101081.19;5029920;28;20024;-82
2022/12/23 11:39:01;;;;;;;71.45;32.42;;;;;;;8.74;60.29;101082.66;5030230;28;20032;-80
2022/12/23 11:41:27;;;;;;;79.68;33.40;;;;;;;8.81;60.31;101062.66;5047934;28;20529;-80
2022/12/23 11:44:26;;;;;;;71.93;29.00;;;;;;;8.87;60.17;101065.88;5047219;28;20059;-79
2022/12/23 11:46:51;;;;;;;69.75;28.60;;;;;;;8.84;60.11;101042.75;5065054;28;20040;-79
2022/12/23 11:49:24;;;;;;;64.80;28.15;;;;;;;8.98;60.34;101059.50;5048817;28;20025;-79
2022/12/23 11:52:05;;;;;;;;;;;;;;;8.99;60.19;101063.75;5048525;28;20028;-80
2022/12/23 11:54:31;;;;;;;72.30;29.85;;;;;;;8.89;60.73;101051.19;5048381;28;19912;-80
2022/12/23 11:56:56;;;;;;;64.00;27.17;;;;;;;8.87;60.77;101042.66;5032507;28;20032;-79
2022/12/23 11:59:37;;;;;;;83.05;28.08;;;;;;;8.99;60.71;101064.59;5048610;28;20029;-80